sensor_id;sensor_type;location;lat;lon;timestamp;P1;durP1;ratioP1;P2;durP2;ratioP2
18726;SDS011;9492;51.888;5.186;2022-07-23T00:00:17;1.80;;;1.70;;
18726;SDS011;9492;51.888;5.186;2022-07-23T00:02:43;2.20;;;2.00;;
18726;SDS011;9492;51.888;5.186;2022-07-23T00:05:09;4.07;;;2.10;;
18726;SDS011;9492;51.888;5.186;2022-07-23T00:07:36;2.70;;;2.00;;
18726;SDS011;9492;51.888;5.186;2022-07-23T00:10:02;2.90;;;1.93;;
18726;SDS011;9492;51.888;5.186;2022-07-23T00:12:28;2.10;;;1.90;;
18726;SDS011;9492;51.888;5.186;2022-07-23T00:14:54;2.20;;;2.00;;
18726;SDS011;9492;51.888;5.186;2022-07-23T00:17:20;4.20;;;2.00;;
18726;SDS011;9492;51.888;5.186;2022-07-23T00:19:46;2.27;;;2.07;;
18726;SDS011;9492;51.888;5.186;2022-07-23T00:22:12;2.50;;;2.30;;
18726;SDS011;9492;51.888;5.186;2022-07-23T00:24:38;4.20;;;2.00;;
18726;SDS011;9492;51.888;5.186;2022-07-23T00:27:04;4.10;;;1.97;;
18726;SDS011;9492;51.888;5.186;2022-07-23T00:29:30;1.90;;;1.80;;
18726;SDS011;9492;51.888;5.186;2022-07-23T00:31:56;1.70;;;1.60;;
18726;SDS011;9492;51.888;5.186;2022-07-23T00:34:22;2.87;;;1.90;;
18726;SDS011;9492;51.888;5.186;2022-07-23T00:36:48;2.70;;;2.00;;
18726;SDS011;9492;51.888;5.186;2022-07-23T00:39:14;1.97;;;1.87;;
18726;SDS011;9492;51.888;5.186;2022-07-23T00:41:40;2.00;;;1.80;;
18726;SDS011;9492;51.888;5.186;2022-07-23T00:44:20;2.57;;;2.00;;
18726;SDS011;9492;51.888;5.186;2022-07-23T00:46:50;2.30;;;2.10;;
18726;SDS011;9492;51.888;5.186;2022-07-23T00:49:19;2.30;;;2.10;;
18726;SDS011;9492;51.888;5.186;2022-07-23T00:51:45;2.47;;;1.80;;
18726;SDS011;9492;51.888;5.186;2022-07-23T00:54:11;2.07;;;1.83;;
18726;SDS011;9492;51.888;5.186;2022-07-23T00:56:37;2.30;;;2.07;;
18726;SDS011;9492;51.888;5.186;2022-07-23T00:59:04;2.00;;;1.83;;
18726;SDS011;9492;51.888;5.186;2022-07-23T01:01:31;3.80;;;2.57;;
18726;SDS011;9492;51.888;5.186;2022-07-23T01:03:57;2.37;;;1.60;;
18726;SDS011;9492;51.888;5.186;2022-07-23T01:06:23;1.93;;;1.80;;
18726;SDS011;9492;51.888;5.186;2022-07-23T01:08:49;2.20;;;2.00;;
18726;SDS011;9492;51.888;5.186;2022-07-23T01:11:15;3.90;;;2.20;;
18726;SDS011;9492;51.888;5.186;2022-07-23T01:13:44;2.50;;;2.30;;
18726;SDS011;9492;51.888;5.186;2022-07-23T01:16:10;2.90;;;1.97;;
18726;SDS011;9492;51.888;5.186;2022-07-23T01:18:36;2.20;;;2.00;;
18726;SDS011;9492;51.888;5.186;2022-07-23T01:21:02;2.77;;;2.07;;
18726;SDS011;9492;51.888;5.186;2022-07-23T01:23:28;2.10;;;2.00;;
18726;SDS011;9492;51.888;5.186;2022-07-23T01:25:54;2.77;;;2.23;;
18726;SDS011;9492;51.888;5.186;2022-07-23T01:28:20;2.40;;;2.07;;
18726;SDS011;9492;51.888;5.186;2022-07-23T01:30:47;3.20;;;2.60;;
18726;SDS011;9492;51.888;5.186;2022-07-23T01:33:13;2.70;;;2.27;;
18726;SDS011;9492;51.888;5.186;2022-07-23T01:35:39;2.23;;;2.13;;
18726;SDS011;9492;51.888;5.186;2022-07-23T01:38:05;2.60;;;2.10;;
18726;SDS011;9492;51.888;5.186;2022-07-23T01:40:32;2.20;;;2.10;;
18726;SDS011;9492;51.888;5.186;2022-07-23T01:42:58;2.10;;;1.73;;
18726;SDS011;9492;51.888;5.186;2022-07-23T01:45:24;2.00;;;1.90;;
18726;SDS011;9492;51.888;5.186;2022-07-23T01:47:50;3.07;;;2.30;;
18726;SDS011;9492;51.888;5.186;2022-07-23T01:50:16;4.70;;;2.60;;
18726;SDS011;9492;51.888;5.186;2022-07-23T01:52:42;2.33;;;2.13;;
18726;SDS011;9492;51.888;5.186;2022-07-23T01:55:08;2.50;;;2.30;;
18726;SDS011;9492;51.888;5.186;2022-07-23T01:57:34;2.60;;;2.40;;
18726;SDS011;9492;51.888;5.186;2022-07-23T02:00:00;4.27;;;2.17;;
18726;SDS011;9492;51.888;5.186;2022-07-23T02:02:26;3.27;;;2.40;;
18726;SDS011;9492;51.888;5.186;2022-07-23T02:04:52;2.43;;;2.23;;
18726;SDS011;9492;51.888;5.186;2022-07-23T02:07:18;2.60;;;2.40;;
18726;SDS011;9492;51.888;5.186;2022-07-23T02:09:44;3.00;;;2.47;;
18726;SDS011;9492;51.888;5.186;2022-07-23T02:12:10;2.77;;;2.20;;
18726;SDS011;9492;51.888;5.186;2022-07-23T02:14:36;2.60;;;2.40;;
18726;SDS011;9492;51.888;5.186;2022-07-23T02:17:02;2.50;;;2.17;;
18726;SDS011;9492;51.888;5.186;2022-07-23T02:19:28;3.83;;;2.47;;
18726;SDS011;9492;51.888;5.186;2022-07-23T02:21:54;2.63;;;1.90;;
18726;SDS011;9492;51.888;5.186;2022-07-23T02:24:20;2.50;;;2.33;;
18726;SDS011;9492;51.888;5.186;2022-07-23T02:26:46;2.60;;;2.40;;
18726;SDS011;9492;51.888;5.186;2022-07-23T02:29:12;2.17;;;2.07;;
18726;SDS011;9492;51.888;5.186;2022-07-23T02:31:38;2.43;;;2.20;;
18726;SDS011;9492;51.888;5.186;2022-07-23T02:34:04;3.30;;;2.50;;
18726;SDS011;9492;51.888;5.186;2022-07-23T02:36:30;2.57;;;2.37;;
18726;SDS011;9492;51.888;5.186;2022-07-23T02:38:56;2.10;;;2.00;;
18726;SDS011;9492;51.888;5.186;2022-07-23T02:41:23;4.63;;;2.57;;
18726;SDS011;9492;51.888;5.186;2022-07-23T02:43:49;2.70;;;2.30;;
18726;SDS011;9492;51.888;5.186;2022-07-23T02:46:15;2.30;;;2.10;;
18726;SDS011;9492;51.888;5.186;2022-07-23T02:48:41;2.50;;;2.30;;
18726;SDS011;9492;51.888;5.186;2022-07-23T02:51:07;2.97;;;2.20;;
18726;SDS011;9492;51.888;5.186;2022-07-23T02:53:33;2.53;;;2.27;;
18726;SDS011;9492;51.888;5.186;2022-07-23T02:55:59;3.67;;;2.60;;
18726;SDS011;9492;51.888;5.186;2022-07-23T02:58:25;2.30;;;2.20;;
18726;SDS011;9492;51.888;5.186;2022-07-23T03:00:52;3.20;;;2.90;;
18726;SDS011;9492;51.888;5.186;2022-07-23T03:03:18;2.60;;;2.40;;
18726;SDS011;9492;51.888;5.186;2022-07-23T03:05:44;2.80;;;2.43;;
18726;SDS011;9492;51.888;5.186;2022-07-23T03:08:10;3.33;;;2.50;;
18726;SDS011;9492;51.888;5.186;2022-07-23T03:10:36;2.70;;;2.50;;
18726;SDS011;9492;51.888;5.186;2022-07-23T03:13:02;2.90;;;2.70;;
18726;SDS011;9492;51.888;5.186;2022-07-23T03:15:28;2.87;;;2.40;;
18726;SDS011;9492;51.888;5.186;2022-07-23T03:17:54;2.63;;;2.43;;
18726;SDS011;9492;51.888;5.186;2022-07-23T03:20:20;3.20;;;2.63;;
18726;SDS011;9492;51.888;5.186;2022-07-23T03:22:46;2.67;;;2.47;;
18726;SDS011;9492;51.888;5.186;2022-07-23T03:25:12;2.60;;;2.40;;
18726;SDS011;9492;51.888;5.186;2022-07-23T03:27:38;3.43;;;2.63;;
18726;SDS011;9492;51.888;5.186;2022-07-23T03:30:04;3.67;;;2.87;;
18726;SDS011;9492;51.888;5.186;2022-07-23T03:32:30;3.87;;;2.70;;
18726;SDS011;9492;51.888;5.186;2022-07-23T03:34:56;3.73;;;3.37;;
18726;SDS011;9492;51.888;5.186;2022-07-23T03:37:22;3.33;;;3.03;;
18726;SDS011;9492;51.888;5.186;2022-07-23T03:39:49;3.37;;;3.07;;
18726;SDS011;9492;51.888;5.186;2022-07-23T03:42:15;3.47;;;3.00;;
18726;SDS011;9492;51.888;5.186;2022-07-23T03:44:41;3.73;;;3.00;;
18726;SDS011;9492;51.888;5.186;2022-07-23T03:47:07;4.20;;;3.10;;
18726;SDS011;9492;51.888;5.186;2022-07-23T03:49:33;3.53;;;2.90;;
18726;SDS011;9492;51.888;5.186;2022-07-23T03:51:59;2.87;;;2.67;;
18726;SDS011;9492;51.888;5.186;2022-07-23T03:54:25;3.27;;;2.97;;
18726;SDS011;9492;51.888;5.186;2022-07-23T03:56:51;2.90;;;2.70;;
18726;SDS011;9492;51.888;5.186;2022-07-23T03:59:17;3.17;;;2.43;;
18726;SDS011;9492;51.888;5.186;2022-07-23T04:01:43;3.40;;;3.10;;
18726;SDS011;9492;51.888;5.186;2022-07-23T04:04:09;3.20;;;2.90;;
18726;SDS011;9492;51.888;5.186;2022-07-23T04:06:35;4.37;;;3.10;;
18726;SDS011;9492;51.888;5.186;2022-07-23T04:09:02;2.70;;;2.50;;
18726;SDS011;9492;51.888;5.186;2022-07-23T04:11:28;3.00;;;2.70;;
18726;SDS011;9492;51.888;5.186;2022-07-23T04:13:54;4.03;;;3.03;;
18726;SDS011;9492;51.888;5.186;2022-07-23T04:16:20;3.37;;;3.07;;
18726;SDS011;9492;51.888;5.186;2022-07-23T04:18:46;3.50;;;2.77;;
18726;SDS011;9492;51.888;5.186;2022-07-23T04:21:12;3.03;;;2.83;;
18726;SDS011;9492;51.888;5.186;2022-07-23T04:23:38;3.17;;;2.87;;
18726;SDS011;9492;51.888;5.186;2022-07-23T04:26:04;3.83;;;2.90;;
18726;SDS011;9492;51.888;5.186;2022-07-23T04:28:30;2.80;;;2.60;;
18726;SDS011;9492;51.888;5.186;2022-07-23T04:30:57;5.63;;;2.90;;
18726;SDS011;9492;51.888;5.186;2022-07-23T04:33:23;2.87;;;2.50;;
18726;SDS011;9492;51.888;5.186;2022-07-23T04:35:49;3.40;;;3.07;;
18726;SDS011;9492;51.888;5.186;2022-07-23T04:38:15;2.80;;;2.60;;
18726;SDS011;9492;51.888;5.186;2022-07-23T04:40:40;2.93;;;2.73;;
18726;SDS011;9492;51.888;5.186;2022-07-23T04:43:06;3.13;;;2.83;;
18726;SDS011;9492;51.888;5.186;2022-07-23T04:45:32;3.97;;;2.63;;
18726;SDS011;9492;51.888;5.186;2022-07-23T04:47:58;3.10;;;2.80;;
18726;SDS011;9492;51.888;5.186;2022-07-23T04:50:24;3.30;;;3.00;;
18726;SDS011;9492;51.888;5.186;2022-07-23T04:52:50;4.07;;;2.97;;
18726;SDS011;9492;51.888;5.186;2022-07-23T04:55:16;2.97;;;2.77;;
18726;SDS011;9492;51.888;5.186;2022-07-23T04:57:42;4.00;;;3.30;;
18726;SDS011;9492;51.888;5.186;2022-07-23T05:00:09;3.00;;;2.80;;
18726;SDS011;9492;51.888;5.186;2022-07-23T05:02:35;3.07;;;2.83;;
18726;SDS011;9492;51.888;5.186;2022-07-23T05:05:01;3.60;;;3.30;;
18726;SDS011;9492;51.888;5.186;2022-07-23T05:07:27;4.53;;;3.23;;
18726;SDS011;9492;51.888;5.186;2022-07-23T05:09:53;4.10;;;3.70;;
18726;SDS011;9492;51.888;5.186;2022-07-23T05:12:19;4.10;;;3.53;;
18726;SDS011;9492;51.888;5.186;2022-07-23T05:14:45;4.13;;;3.10;;
18726;SDS011;9492;51.888;5.186;2022-07-23T05:17:11;4.50;;;3.10;;
18726;SDS011;9492;51.888;5.186;2022-07-23T05:19:37;3.93;;;3.43;;
18726;SDS011;9492;51.888;5.186;2022-07-23T05:22:03;3.50;;;3.20;;
18726;SDS011;9492;51.888;5.186;2022-07-23T05:24:29;3.43;;;3.00;;
18726;SDS011;9492;51.888;5.186;2022-07-23T05:26:55;4.97;;;3.30;;
18726;SDS011;9492;51.888;5.186;2022-07-23T05:29:21;3.67;;;2.80;;
18726;SDS011;9492;51.888;5.186;2022-07-23T05:31:46;2.87;;;2.60;;
18726;SDS011;9492;51.888;5.186;2022-07-23T05:34:13;3.10;;;2.80;;
18726;SDS011;9492;51.888;5.186;2022-07-23T05:36:39;3.60;;;2.93;;
18726;SDS011;9492;51.888;5.186;2022-07-23T05:39:05;3.07;;;2.83;;
18726;SDS011;9492;51.888;5.186;2022-07-23T05:41:31;4.17;;;3.40;;
18726;SDS011;9492;51.888;5.186;2022-07-23T05:43:57;2.93;;;2.73;;
18726;SDS011;9492;51.888;5.186;2022-07-23T05:46:23;3.33;;;3.00;;
18726;SDS011;9492;51.888;5.186;2022-07-23T05:48:49;3.30;;;2.40;;
18726;SDS011;9492;51.888;5.186;2022-07-23T05:51:19;3.47;;;2.73;;
18726;SDS011;9492;51.888;5.186;2022-07-23T05:53:45;2.83;;;2.57;;
18726;SDS011;9492;51.888;5.186;2022-07-23T05:56:12;2.60;;;2.40;;
18726;SDS011;9492;51.888;5.186;2022-07-23T05:58:38;3.50;;;2.58;;
18726;SDS011;9492;51.888;5.186;2022-07-23T06:01:04;2.80;;;2.25;;
18726;SDS011;9492;51.888;5.186;2022-07-23T06:03:30;4.50;;;2.67;;
18726;SDS011;9492;51.888;5.186;2022-07-23T06:05:56;4.75;;;2.42;;
18726;SDS011;9492;51.888;5.186;2022-07-23T06:08:22;2.95;;;2.05;;
18726;SDS011;9492;51.888;5.186;2022-07-23T06:10:48;2.15;;;1.95;;
18726;SDS011;9492;51.888;5.186;2022-07-23T06:13:14;2.60;;;1.77;;
18726;SDS011;9492;51.888;5.186;2022-07-23T06:15:39;2.72;;;1.98;;
18726;SDS011;9492;51.888;5.186;2022-07-23T06:18:05;2.47;;;2.00;;
18726;SDS011;9492;51.888;5.186;2022-07-23T06:20:31;2.53;;;2.03;;
18726;SDS011;9492;51.888;5.186;2022-07-23T06:22:57;3.20;;;1.95;;
18726;SDS011;9492;51.888;5.186;2022-07-23T06:25:23;2.40;;;1.98;;
18726;SDS011;9492;51.888;5.186;2022-07-23T06:27:49;2.20;;;2.00;;
18726;SDS011;9492;51.888;5.186;2022-07-23T06:30:15;3.78;;;2.17;;
18726;SDS011;9492;51.888;5.186;2022-07-23T06:32:42;2.13;;;1.55;;
18726;SDS011;9492;51.888;5.186;2022-07-23T06:35:08;2.15;;;1.95;;
18726;SDS011;9492;51.888;5.186;2022-07-23T06:37:34;1.63;;;1.52;;
18726;SDS011;9492;51.888;5.186;2022-07-23T06:40:01;2.25;;;1.50;;
18726;SDS011;9492;51.888;5.186;2022-07-23T06:42:26;2.40;;;1.60;;
18726;SDS011;9492;51.888;5.186;2022-07-23T06:44:52;1.83;;;1.73;;
18726;SDS011;9492;51.888;5.186;2022-07-23T06:47:18;2.53;;;1.88;;
18726;SDS011;9492;51.888;5.186;2022-07-23T06:49:44;3.28;;;1.63;;
18726;SDS011;9492;51.888;5.186;2022-07-23T06:52:10;2.95;;;1.90;;
18726;SDS011;9492;51.888;5.186;2022-07-23T06:54:36;3.17;;;1.80;;
18726;SDS011;9492;51.888;5.186;2022-07-23T06:57:02;2.10;;;1.40;;
18726;SDS011;9492;51.888;5.186;2022-07-23T06:59:28;1.80;;;1.13;;
18726;SDS011;9492;51.888;5.186;2022-07-23T07:01:54;2.03;;;1.27;;
18726;SDS011;9492;51.888;5.186;2022-07-23T07:04:20;2.30;;;1.40;;
18726;SDS011;9492;51.888;5.186;2022-07-23T07:06:46;2.38;;;1.50;;
18726;SDS011;9492;51.888;5.186;2022-07-23T07:09:12;1.85;;;1.10;;
18726;SDS011;9492;51.888;5.186;2022-07-23T07:11:38;2.15;;;1.35;;
18726;SDS011;9492;51.888;5.186;2022-07-23T07:14:04;1.58;;;1.30;;
18726;SDS011;9492;51.888;5.186;2022-07-23T07:16:31;1.42;;;1.27;;
18726;SDS011;9492;51.888;5.186;2022-07-23T07:18:57;2.15;;;1.02;;
18726;SDS011;9492;51.888;5.186;2022-07-23T07:21:23;2.65;;;1.00;;
18726;SDS011;9492;51.888;5.186;2022-07-23T07:23:49;2.50;;;1.10;;
18726;SDS011;9492;51.888;5.186;2022-07-23T07:26:15;2.05;;;1.20;;
18726;SDS011;9492;51.888;5.186;2022-07-23T07:28:41;4.00;;;1.38;;
18726;SDS011;9492;51.888;5.186;2022-07-23T07:31:07;2.22;;;1.40;;
18726;SDS011;9492;51.888;5.186;2022-07-23T07:33:33;2.65;;;1.15;;
18726;SDS011;9492;51.888;5.186;2022-07-23T07:35:59;2.55;;;1.70;;
18726;SDS011;9492;51.888;5.186;2022-07-23T07:38:25;1.48;;;1.38;;
18726;SDS011;9492;51.888;5.186;2022-07-23T07:40:51;4.88;;;1.27;;
18726;SDS011;9492;51.888;5.186;2022-07-23T07:43:17;2.20;;;1.65;;
18726;SDS011;9492;51.888;5.186;2022-07-23T07:45:43;1.98;;;1.63;;
18726;SDS011;9492;51.888;5.186;2022-07-23T07:48:09;2.38;;;1.40;;
18726;SDS011;9492;51.888;5.186;2022-07-23T07:50:35;2.17;;;1.52;;
18726;SDS011;9492;51.888;5.186;2022-07-23T07:53:01;2.35;;;1.33;;
18726;SDS011;9492;51.888;5.186;2022-07-23T07:55:27;2.00;;;1.10;;
18726;SDS011;9492;51.888;5.186;2022-07-23T07:57:53;1.50;;;1.40;;
18726;SDS011;9492;51.888;5.186;2022-07-23T08:00:19;1.70;;;1.50;;
18726;SDS011;9492;51.888;5.186;2022-07-23T08:02:46;1.55;;;1.10;;
18726;SDS011;9492;51.888;5.186;2022-07-23T08:05:12;2.70;;;1.70;;
18726;SDS011;9492;51.888;5.186;2022-07-23T08:07:38;1.20;;;1.10;;
18726;SDS011;9492;51.888;5.186;2022-07-23T08:10:05;1.65;;;1.10;;
18726;SDS011;9492;51.888;5.186;2022-07-23T08:12:42;2.08;;;1.33;;
18726;SDS011;9492;51.888;5.186;2022-07-23T08:15:09;1.55;;;1.13;;
18726;SDS011;9492;51.888;5.186;2022-07-23T08:17:35;2.75;;;1.25;;
18726;SDS011;9492;51.888;5.186;2022-07-23T08:20:02;3.72;;;1.73;;
18726;SDS011;9492;51.888;5.186;2022-07-23T08:22:41;4.70;;;2.35;;
18726;SDS011;9492;51.888;5.186;2022-07-23T08:25:08;3.55;;;1.58;;
18726;SDS011;9492;51.888;5.186;2022-07-23T08:27:34;4.20;;;1.90;;
18726;SDS011;9492;51.888;5.186;2022-07-23T08:30:00;4.75;;;1.92;;
18726;SDS011;9492;51.888;5.186;2022-07-23T08:32:26;2.22;;;1.63;;
18726;SDS011;9492;51.888;5.186;2022-07-23T08:34:52;2.08;;;1.98;;
18726;SDS011;9492;51.888;5.186;2022-07-23T08:37:18;4.93;;;2.08;;
18726;SDS011;9492;51.888;5.186;2022-07-23T08:39:44;1.85;;;1.40;;
18726;SDS011;9492;51.888;5.186;2022-07-23T08:42:10;1.80;;;1.65;;
18726;SDS011;9492;51.888;5.186;2022-07-23T08:44:36;1.85;;;1.40;;
18726;SDS011;9492;51.888;5.186;2022-07-23T08:47:04;1.95;;;1.45;;
18726;SDS011;9492;51.888;5.186;2022-07-23T08:49:29;2.70;;;1.83;;
18726;SDS011;9492;51.888;5.186;2022-07-23T08:51:56;3.63;;;2.00;;
18726;SDS011;9492;51.888;5.186;2022-07-23T08:54:22;1.88;;;1.58;;
18726;SDS011;9492;51.888;5.186;2022-07-23T08:56:48;1.52;;;1.42;;
18726;SDS011;9492;51.888;5.186;2022-07-23T08:59:14;2.85;;;1.70;;
18726;SDS011;9492;51.888;5.186;2022-07-23T09:01:40;2.75;;;1.80;;
18726;SDS011;9492;51.888;5.186;2022-07-23T09:04:06;4.88;;;2.05;;
18726;SDS011;9492;51.888;5.186;2022-07-23T09:06:32;3.58;;;2.08;;
18726;SDS011;9492;51.888;5.186;2022-07-23T09:08:58;2.40;;;2.05;;
18726;SDS011;9492;51.888;5.186;2022-07-23T09:11:25;1.73;;;1.63;;
18726;SDS011;9492;51.888;5.186;2022-07-23T09:13:52;3.28;;;1.88;;
18726;SDS011;9492;51.888;5.186;2022-07-23T09:16:19;4.45;;;1.60;;
18726;SDS011;9492;51.888;5.186;2022-07-23T09:18:47;4.22;;;1.80;;
18726;SDS011;9492;51.888;5.186;2022-07-23T09:21:15;1.67;;;1.30;;
18726;SDS011;9492;51.888;5.186;2022-07-23T09:23:51;1.88;;;1.60;;
18726;SDS011;9492;51.888;5.186;2022-07-23T09:26:22;2.00;;;1.58;;
18726;SDS011;9492;51.888;5.186;2022-07-23T09:29:31;2.28;;;1.92;;
18726;SDS011;9492;51.888;5.186;2022-07-23T09:31:48;4.18;;;1.70;;
18726;SDS011;9492;51.888;5.186;2022-07-23T09:34:25;2.17;;;1.90;;
18726;SDS011;9492;51.888;5.186;2022-07-23T09:36:55;1.85;;;1.75;;
18726;SDS011;9492;51.888;5.186;2022-07-23T09:39:24;3.75;;;1.48;;
18726;SDS011;9492;51.888;5.186;2022-07-23T09:41:50;2.42;;;1.77;;
18726;SDS011;9492;51.888;5.186;2022-07-23T09:44:18;1.50;;;1.40;;
18726;SDS011;9492;51.888;5.186;2022-07-23T09:46:45;2.00;;;1.90;;
18726;SDS011;9492;51.888;5.186;2022-07-23T09:49:16;1.98;;;1.52;;
18726;SDS011;9492;51.888;5.186;2022-07-23T09:52:03;1.90;;;1.80;;
18726;SDS011;9492;51.888;5.186;2022-07-23T09:56:59;3.13;;;2.20;;
18726;SDS011;9492;51.888;5.186;2022-07-23T09:59:26;2.47;;;1.55;;
18726;SDS011;9492;51.888;5.186;2022-07-23T10:01:54;3.10;;;1.60;;
18726;SDS011;9492;51.888;5.186;2022-07-23T10:04:22;2.53;;;1.60;;
18726;SDS011;9492;51.888;5.186;2022-07-23T10:06:50;2.28;;;1.50;;
18726;SDS011;9492;51.888;5.186;2022-07-23T10:09:16;1.80;;;1.70;;
18726;SDS011;9492;51.888;5.186;2022-07-23T10:11:48;2.45;;;1.67;;
18726;SDS011;9492;51.888;5.186;2022-07-23T10:14:14;1.88;;;1.65;;
18726;SDS011;9492;51.888;5.186;2022-07-23T10:16:40;2.50;;;2.00;;
18726;SDS011;9492;51.888;5.186;2022-07-23T10:19:06;3.60;;;1.33;;
18726;SDS011;9492;51.888;5.186;2022-07-23T10:21:44;1.80;;;1.70;;
18726;SDS011;9492;51.888;5.186;2022-07-23T10:24:28;3.75;;;2.53;;
18726;SDS011;9492;51.888;5.186;2022-07-23T10:34:44;1.92;;;1.83;;
18726;SDS011;9492;51.888;5.186;2022-07-23T10:42:35;3.13;;;2.63;;
18726;SDS011;9492;51.888;5.186;2022-07-23T10:45:02;4.95;;;2.67;;
18726;SDS011;9492;51.888;5.186;2022-07-23T10:47:47;2.53;;;2.33;;
18726;SDS011;9492;51.888;5.186;2022-07-23T10:57:57;2.35;;;2.17;;
18726;SDS011;9492;51.888;5.186;2022-07-23T11:00:24;2.90;;;2.25;;
18726;SDS011;9492;51.888;5.186;2022-07-23T11:02:54;2.92;;;2.22;;
18726;SDS011;9492;51.888;5.186;2022-07-23T11:05:21;3.58;;;2.25;;
18726;SDS011;9492;51.888;5.186;2022-07-23T11:08:33;2.75;;;2.17;;
18726;SDS011;9492;51.888;5.186;2022-07-23T11:10:50;4.55;;;3.05;;
18726;SDS011;9492;51.888;5.186;2022-07-23T11:31:52;2.33;;;2.13;;
18726;SDS011;9492;51.888;5.186;2022-07-23T11:34:31;2.38;;;2.17;;
18726;SDS011;9492;51.888;5.186;2022-07-23T11:36:57;2.60;;;2.17;;
18726;SDS011;9492;51.888;5.186;2022-07-23T11:39:24;2.40;;;2.20;;
18726;SDS011;9492;51.888;5.186;2022-07-23T11:41:51;2.00;;;1.90;;
18726;SDS011;9492;51.888;5.186;2022-07-23T11:44:24;2.88;;;2.03;;
18726;SDS011;9492;51.888;5.186;2022-07-23T11:49:22;2.17;;;1.60;;
18726;SDS011;9492;51.888;5.186;2022-07-23T11:54:34;2.95;;;1.65;;
18726;SDS011;9492;51.888;5.186;2022-07-23T11:57:01;2.20;;;2.00;;
18726;SDS011;9492;51.888;5.186;2022-07-23T11:59:28;2.20;;;2.00;;
18726;SDS011;9492;51.888;5.186;2022-07-23T12:02:02;2.17;;;1.50;;
18726;SDS011;9492;51.888;5.186;2022-07-23T12:04:43;3.47;;;2.25;;
18726;SDS011;9492;51.888;5.186;2022-07-23T12:09:54;2.22;;;1.80;;
18726;SDS011;9492;51.888;5.186;2022-07-23T12:12:20;1.80;;;1.70;;
18726;SDS011;9492;51.888;5.186;2022-07-23T12:14:47;2.40;;;2.17;;
18726;SDS011;9492;51.888;5.186;2022-07-23T12:17:13;2.92;;;2.50;;
18726;SDS011;9492;51.888;5.186;2022-07-23T12:19:39;2.08;;;1.85;;
18726;SDS011;9492;51.888;5.186;2022-07-23T12:22:05;2.20;;;1.90;;
18726;SDS011;9492;51.888;5.186;2022-07-23T12:24:34;3.97;;;1.98;;
18726;SDS011;9492;51.888;5.186;2022-07-23T12:27:19;1.92;;;1.80;;
18726;SDS011;9492;51.888;5.186;2022-07-23T12:29:45;4.03;;;2.03;;
18726;SDS011;9492;51.888;5.186;2022-07-23T12:32:18;2.95;;;2.00;;
18726;SDS011;9492;51.888;5.186;2022-07-23T12:34:45;2.80;;;2.00;;
18726;SDS011;9492;51.888;5.186;2022-07-23T12:37:33;1.60;;;1.50;;
18726;SDS011;9492;51.888;5.186;2022-07-23T12:39:57;3.65;;;2.10;;
18726;SDS011;9492;51.888;5.186;2022-07-23T12:42:23;3.70;;;2.00;;
18726;SDS011;9492;51.888;5.186;2022-07-23T12:53:03;3.45;;;2.05;;
18726;SDS011;9492;51.888;5.186;2022-07-23T12:55:30;2.40;;;2.20;;
18726;SDS011;9492;51.888;5.186;2022-07-23T12:58:03;2.10;;;1.90;;
18726;SDS011;9492;51.888;5.186;2022-07-23T13:00:30;3.22;;;2.10;;
18726;SDS011;9492;51.888;5.186;2022-07-23T13:02:56;2.08;;;1.98;;
18726;SDS011;9492;51.888;5.186;2022-07-23T13:05:22;3.47;;;2.38;;
18726;SDS011;9492;51.888;5.186;2022-07-23T13:07:48;1.80;;;1.70;;
18726;SDS011;9492;51.888;5.186;2022-07-23T13:10:14;3.30;;;1.95;;
18726;SDS011;9492;51.888;5.186;2022-07-23T13:12:40;2.75;;;1.65;;
18726;SDS011;9492;51.888;5.186;2022-07-23T13:15:06;1.80;;;1.70;;
18726;SDS011;9492;51.888;5.186;2022-07-23T13:17:32;2.47;;;1.80;;
18726;SDS011;9492;51.888;5.186;2022-07-23T13:19:58;2.47;;;1.95;;
18726;SDS011;9492;51.888;5.186;2022-07-23T13:22:24;2.08;;;1.88;;
18726;SDS011;9492;51.888;5.186;2022-07-23T13:24:50;3.92;;;1.85;;
18726;SDS011;9492;51.888;5.186;2022-07-23T13:27:16;1.73;;;1.40;;
18726;SDS011;9492;51.888;5.186;2022-07-23T13:29:41;2.67;;;1.80;;
18726;SDS011;9492;51.888;5.186;2022-07-23T13:32:07;4.65;;;1.95;;
18726;SDS011;9492;51.888;5.186;2022-07-23T13:34:33;2.90;;;2.08;;
18726;SDS011;9492;51.888;5.186;2022-07-23T13:36:59;1.65;;;1.55;;
18726;SDS011;9492;51.888;5.186;2022-07-23T13:39:25;2.67;;;1.40;;
18726;SDS011;9492;51.888;5.186;2022-07-23T13:41:51;1.73;;;1.52;;
18726;SDS011;9492;51.888;5.186;2022-07-23T13:44:17;2.50;;;1.73;;
18726;SDS011;9492;51.888;5.186;2022-07-23T13:46:44;1.50;;;1.27;;
18726;SDS011;9492;51.888;5.186;2022-07-23T13:49:10;4.40;;;1.75;;
18726;SDS011;9492;51.888;5.186;2022-07-23T13:51:36;3.97;;;1.80;;
18726;SDS011;9492;51.888;5.186;2022-07-23T13:54:02;1.83;;;1.70;;
18726;SDS011;9492;51.888;5.186;2022-07-23T13:56:28;2.15;;;1.92;;
18726;SDS011;9492;51.888;5.186;2022-07-23T13:58:54;2.83;;;2.10;;
18726;SDS011;9492;51.888;5.186;2022-07-23T14:01:20;1.35;;;1.35;;
18726;SDS011;9492;51.888;5.186;2022-07-23T14:03:46;2.90;;;2.08;;
18726;SDS011;9492;51.888;5.186;2022-07-23T14:06:12;2.47;;;1.85;;
18726;SDS011;9492;51.888;5.186;2022-07-23T14:08:38;2.88;;;2.45;;
18726;SDS011;9492;51.888;5.186;2022-07-23T14:11:04;2.72;;;1.67;;
18726;SDS011;9492;51.888;5.186;2022-07-23T14:13:30;1.92;;;1.83;;
18726;SDS011;9492;51.888;5.186;2022-07-23T14:15:56;2.40;;;2.03;;
18726;SDS011;9492;51.888;5.186;2022-07-23T14:18:22;2.22;;;1.73;;
18726;SDS011;9492;51.888;5.186;2022-07-23T14:20:48;2.20;;;1.83;;
18726;SDS011;9492;51.888;5.186;2022-07-23T14:23:14;2.00;;;1.90;;
18726;SDS011;9492;51.888;5.186;2022-07-23T14:25:40;2.88;;;2.10;;
18726;SDS011;9492;51.888;5.186;2022-07-23T14:28:06;2.17;;;1.70;;
18726;SDS011;9492;51.888;5.186;2022-07-23T14:30:32;3.10;;;2.17;;
18726;SDS011;9492;51.888;5.186;2022-07-23T14:32:58;1.90;;;1.80;;
18726;SDS011;9492;51.888;5.186;2022-07-23T14:35:24;2.88;;;1.95;;
18726;SDS011;9492;51.888;5.186;2022-07-23T14:37:50;1.80;;;1.70;;
18726;SDS011;9492;51.888;5.186;2022-07-23T14:40:16;1.60;;;1.50;;
18726;SDS011;9492;51.888;5.186;2022-07-23T14:42:42;2.50;;;2.10;;
18726;SDS011;9492;51.888;5.186;2022-07-23T14:45:08;2.40;;;2.20;;
18726;SDS011;9492;51.888;5.186;2022-07-23T14:47:34;2.47;;;1.75;;
18726;SDS011;9492;51.888;5.186;2022-07-23T14:50:00;1.80;;;1.70;;
18726;SDS011;9492;51.888;5.186;2022-07-23T14:52:26;2.85;;;1.52;;
18726;SDS011;9492;51.888;5.186;2022-07-23T14:54:52;1.23;;;1.23;;
18726;SDS011;9492;51.888;5.186;2022-07-23T14:57:18;2.47;;;1.65;;
18726;SDS011;9492;51.888;5.186;2022-07-23T14:59:44;2.10;;;1.90;;
18726;SDS011;9492;51.888;5.186;2022-07-23T15:02:10;1.90;;;1.70;;
18726;SDS011;9492;51.888;5.186;2022-07-23T15:04:36;3.38;;;1.70;;
18726;SDS011;9492;51.888;5.186;2022-07-23T15:07:02;2.90;;;1.38;;
18726;SDS011;9492;51.888;5.186;2022-07-23T15:09:28;1.67;;;1.58;;
18726;SDS011;9492;51.888;5.186;2022-07-23T15:11:54;2.15;;;1.95;;
18726;SDS011;9492;51.888;5.186;2022-07-23T15:14:20;1.75;;;1.63;;
18726;SDS011;9492;51.888;5.186;2022-07-23T15:16:47;3.42;;;1.50;;
18726;SDS011;9492;51.888;5.186;2022-07-23T15:19:12;1.58;;;1.48;;
18726;SDS011;9492;51.888;5.186;2022-07-23T15:21:38;1.98;;;1.20;;
18726;SDS011;9492;51.888;5.186;2022-07-23T15:24:04;2.22;;;1.20;;
18726;SDS011;9492;51.888;5.186;2022-07-23T15:26:30;2.50;;;1.70;;
18726;SDS011;9492;51.888;5.186;2022-07-23T15:28:57;1.52;;;1.40;;
18726;SDS011;9492;51.888;5.186;2022-07-23T15:31:27;1.80;;;1.70;;
18726;SDS011;9492;51.888;5.186;2022-07-23T15:33:53;1.60;;;1.50;;
18726;SDS011;9492;51.888;5.186;2022-07-23T15:36:19;1.50;;;1.33;;
18726;SDS011;9492;51.888;5.186;2022-07-23T15:38:46;1.50;;;1.40;;
18726;SDS011;9492;51.888;5.186;2022-07-23T15:41:12;1.52;;;1.38;;
18726;SDS011;9492;51.888;5.186;2022-07-23T15:43:38;3.05;;;1.50;;
18726;SDS011;9492;51.888;5.186;2022-07-23T15:46:05;1.80;;;1.70;;
18726;SDS011;9492;51.888;5.186;2022-07-23T15:48:31;2.55;;;1.40;;
18726;SDS011;9492;51.888;5.186;2022-07-23T15:50:59;1.85;;;1.75;;
18726;SDS011;9492;51.888;5.186;2022-07-23T15:53:28;2.88;;;1.55;;
18726;SDS011;9492;51.888;5.186;2022-07-23T15:55:54;1.40;;;1.30;;